sensor_id;sensor_type;location;lat;lon;timestamp;P1;durP1;ratioP1;P2;durP2;ratioP2
75054;SDS011;63636;44.746;10.488;2023-04-01T00:00:21;22.52;;;10.00;;
75054;SDS011;63636;44.746;10.488;2023-04-01T00:02:47;17.25;;;9.77;;
75054;SDS011;63636;44.746;10.488;2023-04-01T00:05:13;16.65;;;9.82;;
75054;SDS011;63636;44.746;10.488;2023-04-01T00:07:39;18.33;;;10.35;;
75054;SDS011;63636;44.746;10.488;2023-04-01T00:10:05;19.10;;;11.30;;
75054;SDS011;63636;44.746;10.488;2023-04-01T00:12:31;19.90;;;10.88;;
75054;SDS011;63636;44.746;10.488;2023-04-01T00:14:57;23.80;;;12.35;;
75054;SDS011;63636;44.746;10.488;2023-04-01T00:17:22;19.60;;;11.52;;
75054;SDS011;63636;44.746;10.488;2023-04-01T00:19:48;20.73;;;11.38;;
75054;SDS011;63636;44.746;10.488;2023-04-01T00:22:13;19.35;;;11.18;;
75054;SDS011;63636;44.746;10.488;2023-04-01T00:24:39;19.83;;;12.35;;
75054;SDS011;63636;44.746;10.488;2023-04-01T00:27:05;21.40;;;12.02;;
75054;SDS011;63636;44.746;10.488;2023-04-01T00:29:31;23.33;;;12.60;;
75054;SDS011;63636;44.746;10.488;2023-04-01T00:31:57;22.45;;;13.02;;
75054;SDS011;63636;44.746;10.488;2023-04-01T00:34:23;21.23;;;12.73;;
75054;SDS011;63636;44.746;10.488;2023-04-01T00:36:49;20.52;;;12.20;;
75054;SDS011;63636;44.746;10.488;2023-04-01T00:39:15;21.05;;;12.70;;
75054;SDS011;63636;44.746;10.488;2023-04-01T00:41:41;21.75;;;12.80;;
75054;SDS011;63636;44.746;10.488;2023-04-01T00:44:29;19.90;;;12.43;;
75054;SDS011;63636;44.746;10.488;2023-04-01T00:46:52;20.58;;;12.18;;
75054;SDS011;63636;44.746;10.488;2023-04-01T00:49:19;20.00;;;11.75;;
75054;SDS011;63636;44.746;10.488;2023-04-01T00:51:45;17.35;;;11.05;;
75054;SDS011;63636;44.746;10.488;2023-04-01T00:54:13;19.20;;;10.95;;
75054;SDS011;63636;44.746;10.488;2023-04-01T00:56:41;20.63;;;11.23;;
75054;SDS011;63636;44.746;10.488;2023-04-01T00:59:13;18.30;;;11.77;;
75054;SDS011;63636;44.746;10.488;2023-04-01T01:01:39;21.10;;;11.45;;
75054;SDS011;63636;44.746;10.488;2023-04-01T01:04:05;16.20;;;10.13;;
75054;SDS011;63636;44.746;10.488;2023-04-01T01:09:08;17.15;;;9.95;;
75054;SDS011;63636;44.746;10.488;2023-04-01T01:11:43;19.10;;;10.35;;
75054;SDS011;63636;44.746;10.488;2023-04-01T01:16:42;15.32;;;9.63;;
75054;SDS011;63636;44.746;10.488;2023-04-01T01:24:35;18.05;;;9.82;;
75054;SDS011;63636;44.746;10.488;2023-04-01T01:34:36;19.35;;;9.88;;
75054;SDS011;63636;44.746;10.488;2023-04-01T01:37:07;17.87;;;10.60;;
75054;SDS011;63636;44.746;10.488;2023-04-01T01:39:36;21.70;;;10.00;;
75054;SDS011;63636;44.746;10.488;2023-04-01T01:42:04;16.25;;;8.35;;
75054;SDS011;63636;44.746;10.488;2023-04-01T01:44:30;13.70;;;8.27;;
75054;SDS011;63636;44.746;10.488;2023-04-01T01:46:57;17.23;;;10.00;;
75054;SDS011;63636;44.746;10.488;2023-04-01T01:49:23;18.55;;;11.32;;
75054;SDS011;63636;44.746;10.488;2023-04-01T01:51:50;18.63;;;10.82;;
75054;SDS011;63636;44.746;10.488;2023-04-01T01:54:17;16.63;;;10.45;;
75054;SDS011;63636;44.746;10.488;2023-04-01T01:56:43;18.63;;;10.98;;
75054;SDS011;63636;44.746;10.488;2023-04-01T01:59:10;18.75;;;10.20;;
75054;SDS011;63636;44.746;10.488;2023-04-01T02:01:38;19.50;;;11.10;;
75054;SDS011;63636;44.746;10.488;2023-04-01T02:04:11;21.95;;;10.82;;
75054;SDS011;63636;44.746;10.488;2023-04-01T02:06:39;17.95;;;10.85;;
75054;SDS011;63636;44.746;10.488;2023-04-01T02:09:06;17.83;;;10.93;;
75054;SDS011;63636;44.746;10.488;2023-04-01T02:14:06;18.00;;;11.07;;
75054;SDS011;63636;44.746;10.488;2023-04-01T02:16:38;19.23;;;10.35;;
75054;SDS011;63636;44.746;10.488;2023-04-01T02:19:05;20.55;;;10.52;;
75054;SDS011;63636;44.746;10.488;2023-04-01T02:21:32;18.25;;;10.48;;
75054;SDS011;63636;44.746;10.488;2023-04-01T02:23:59;18.17;;;10.52;;
75054;SDS011;63636;44.746;10.488;2023-04-01T02:26:25;18.42;;;11.32;;
75054;SDS011;63636;44.746;10.488;2023-04-01T02:28:52;19.98;;;11.82;;
75054;SDS011;63636;44.746;10.488;2023-04-01T02:31:18;22.58;;;12.43;;
75054;SDS011;63636;44.746;10.488;2023-04-01T02:33:44;22.95;;;12.80;;
75054;SDS011;63636;44.746;10.488;2023-04-01T02:36:12;20.55;;;12.45;;
75054;SDS011;63636;44.746;10.488;2023-04-01T02:38:38;21.42;;;12.77;;
75054;SDS011;63636;44.746;10.488;2023-04-01T02:41:04;24.27;;;14.10;;
75054;SDS011;63636;44.746;10.488;2023-04-01T02:43:31;23.23;;;14.55;;
75054;SDS011;63636;44.746;10.488;2023-04-01T02:45:57;22.55;;;13.80;;
75054;SDS011;63636;44.746;10.488;2023-04-01T02:48:23;23.55;;;14.80;;
75054;SDS011;63636;44.746;10.488;2023-04-01T02:50:48;23.77;;;14.77;;
75054;SDS011;63636;44.746;10.488;2023-04-01T02:53:14;25.83;;;15.05;;
75054;SDS011;63636;44.746;10.488;2023-04-01T02:55:40;24.23;;;15.20;;
75054;SDS011;63636;44.746;10.488;2023-04-01T02:58:06;25.83;;;15.43;;
75054;SDS011;63636;44.746;10.488;2023-04-01T03:00:31;22.38;;;13.40;;
75054;SDS011;63636;44.746;10.488;2023-04-01T03:02:57;22.88;;;13.55;;
75054;SDS011;63636;44.746;10.488;2023-04-01T03:05:23;23.83;;;13.90;;
75054;SDS011;63636;44.746;10.488;2023-04-01T03:07:49;20.02;;;12.45;;
75054;SDS011;63636;44.746;10.488;2023-04-01T03:10:15;22.48;;;13.23;;
75054;SDS011;63636;44.746;10.488;2023-04-01T03:12:41;19.45;;;12.73;;
75054;SDS011;63636;44.746;10.488;2023-04-01T03:15:06;22.02;;;12.25;;
75054;SDS011;63636;44.746;10.488;2023-04-01T03:17:32;19.88;;;12.30;;
75054;SDS011;63636;44.746;10.488;2023-04-01T03:19:58;18.02;;;11.30;;
75054;SDS011;63636;44.746;10.488;2023-04-01T03:22:23;19.08;;;10.55;;
75054;SDS011;63636;44.746;10.488;2023-04-01T03:24:49;17.38;;;10.85;;
75054;SDS011;63636;44.746;10.488;2023-04-01T03:27:15;17.40;;;10.02;;
75054;SDS011;63636;44.746;10.488;2023-04-01T03:29:41;17.35;;;10.73;;
75054;SDS011;63636;44.746;10.488;2023-04-01T03:32:07;17.40;;;10.73;;
75054;SDS011;63636;44.746;10.488;2023-04-01T03:34:33;19.08;;;10.80;;
75054;SDS011;63636;44.746;10.488;2023-04-01T03:36:59;19.05;;;10.93;;
75054;SDS011;63636;44.746;10.488;2023-04-01T03:39:24;17.75;;;11.88;;
75054;SDS011;63636;44.746;10.488;2023-04-01T03:41:50;17.98;;;10.77;;
75054;SDS011;63636;44.746;10.488;2023-04-01T03:44:16;18.15;;;11.07;;
75054;SDS011;63636;44.746;10.488;2023-04-01T03:46:45;16.17;;;10.30;;
75054;SDS011;63636;44.746;10.488;2023-04-01T03:49:11;17.60;;;10.88;;
75054;SDS011;63636;44.746;10.488;2023-04-01T03:51:37;18.92;;;11.48;;
75054;SDS011;63636;44.746;10.488;2023-04-01T03:54:04;17.83;;;11.07;;
75054;SDS011;63636;44.746;10.488;2023-04-01T03:56:30;16.65;;;9.30;;
75054;SDS011;63636;44.746;10.488;2023-04-01T03:58:55;15.60;;;8.95;;
75054;SDS011;63636;44.746;10.488;2023-04-01T04:01:21;15.02;;;9.00;;
75054;SDS011;63636;44.746;10.488;2023-04-01T04:03:50;17.10;;;10.00;;
75054;SDS011;63636;44.746;10.488;2023-04-01T04:06:17;16.10;;;10.25;;
75054;SDS011;63636;44.746;10.488;2023-04-01T04:08:43;17.25;;;9.57;;
75054;SDS011;63636;44.746;10.488;2023-04-01T04:11:09;17.08;;;10.45;;
75054;SDS011;63636;44.746;10.488;2023-04-01T04:13:38;16.45;;;9.52;;
75054;SDS011;63636;44.746;10.488;2023-04-01T04:16:06;18.80;;;9.70;;
75054;SDS011;63636;44.746;10.488;2023-04-01T04:18:34;16.23;;;9.57;;
75054;SDS011;63636;44.746;10.488;2023-04-01T04:20:59;15.20;;;9.40;;
75054;SDS011;63636;44.746;10.488;2023-04-01T04:23:25;13.15;;;7.35;;
75054;SDS011;63636;44.746;10.488;2023-04-01T04:25:57;12.82;;;7.82;;
75054;SDS011;63636;44.746;10.488;2023-04-01T04:28:23;17.88;;;10.30;;
75054;SDS011;63636;44.746;10.488;2023-04-01T04:30:50;13.55;;;8.50;;
75054;SDS011;63636;44.746;10.488;2023-04-01T04:33:16;13.93;;;7.97;;
75054;SDS011;63636;44.746;10.488;2023-04-01T04:35:41;15.35;;;8.57;;
75054;SDS011;63636;44.746;10.488;2023-04-01T04:38:07;13.70;;;8.27;;
75054;SDS011;63636;44.746;10.488;2023-04-01T04:40:35;12.57;;;7.80;;
75054;SDS011;63636;44.746;10.488;2023-04-01T04:43:01;12.25;;;7.45;;
75054;SDS011;63636;44.746;10.488;2023-04-01T04:45:27;11.93;;;7.07;;
75054;SDS011;63636;44.746;10.488;2023-04-01T04:47:56;12.93;;;6.75;;
75054;SDS011;63636;44.746;10.488;2023-04-01T04:50:21;12.85;;;7.38;;
75054;SDS011;63636;44.746;10.488;2023-04-01T04:52:47;13.20;;;7.43;;
75054;SDS011;63636;44.746;10.488;2023-04-01T04:55:13;12.98;;;7.32;;
75054;SDS011;63636;44.746;10.488;2023-04-01T04:57:42;11.15;;;6.82;;
75054;SDS011;63636;44.746;10.488;2023-04-01T05:00:07;19.73;;;9.98;;
75054;SDS011;63636;44.746;10.488;2023-04-01T05:02:45;13.57;;;8.73;;
75054;SDS011;63636;44.746;10.488;2023-04-01T05:05:11;15.48;;;8.40;;
75054;SDS011;63636;44.746;10.488;2023-04-01T05:07:37;16.20;;;9.35;;
75054;SDS011;63636;44.746;10.488;2023-04-01T05:10:02;17.27;;;9.52;;
75054;SDS011;63636;44.746;10.488;2023-04-01T05:12:28;16.00;;;9.15;;
75054;SDS011;63636;44.746;10.488;2023-04-01T05:14:59;15.82;;;8.85;;
75054;SDS011;63636;44.746;10.488;2023-04-01T05:17:25;16.75;;;8.55;;
75054;SDS011;63636;44.746;10.488;2023-04-01T05:19:51;15.93;;;7.90;;
75054;SDS011;63636;44.746;10.488;2023-04-01T05:22:16;17.95;;;9.65;;
75054;SDS011;63636;44.746;10.488;2023-04-01T05:24:42;15.85;;;9.77;;
75054;SDS011;63636;44.746;10.488;2023-04-01T05:27:08;15.48;;;9.15;;
75054;SDS011;63636;44.746;10.488;2023-04-01T05:29:37;14.20;;;8.35;;
75054;SDS011;63636;44.746;10.488;2023-04-01T05:32:06;16.27;;;8.50;;
75054;SDS011;63636;44.746;10.488;2023-04-01T05:34:32;15.43;;;8.52;;
75054;SDS011;63636;44.746;10.488;2023-04-01T05:36:57;13.98;;;8.25;;
75054;SDS011;63636;44.746;10.488;2023-04-01T05:39:23;13.57;;;8.75;;
75054;SDS011;63636;44.746;10.488;2023-04-01T05:41:49;14.68;;;8.05;;
75054;SDS011;63636;44.746;10.488;2023-04-01T05:44:14;12.10;;;6.97;;
75054;SDS011;63636;44.746;10.488;2023-04-01T05:47:00;13.55;;;7.22;;
75054;SDS011;63636;44.746;10.488;2023-04-01T05:49:26;12.23;;;6.40;;
75054;SDS011;63636;44.746;10.488;2023-04-01T05:51:51;10.80;;;5.30;;
75054;SDS011;63636;44.746;10.488;2023-04-01T05:54:17;11.93;;;5.03;;
75054;SDS011;63636;44.746;10.488;2023-04-01T05:56:44;8.68;;;4.90;;
75054;SDS011;63636;44.746;10.488;2023-04-01T05:59:10;9.10;;;4.32;;
75054;SDS011;63636;44.746;10.488;2023-04-01T06:01:36;7.55;;;4.15;;
75054;SDS011;63636;44.746;10.488;2023-04-01T06:04:02;7.28;;;3.95;;
75054;SDS011;63636;44.746;10.488;2023-04-01T06:06:28;8.43;;;3.90;;
75054;SDS011;63636;44.746;10.488;2023-04-01T06:09:26;8.10;;;4.35;;
75054;SDS011;63636;44.746;10.488;2023-04-01T06:17:38;9.73;;;4.18;;
75054;SDS011;63636;44.746;10.488;2023-04-01T06:22:37;9.07;;;4.38;;
75054;SDS011;63636;44.746;10.488;2023-04-01T06:30:33;9.00;;;4.53;;
75054;SDS011;63636;44.746;10.488;2023-04-01T06:38:25;9.63;;;4.70;;
75054;SDS011;63636;44.746;10.488;2023-04-01T06:58:04;19.80;;;12.05;;
75054;SDS011;63636;44.746;10.488;2023-04-01T07:00:40;19.40;;;11.70;;
75054;SDS011;63636;44.746;10.488;2023-04-01T07:03:23;22.33;;;11.98;;
75054;SDS011;63636;44.746;10.488;2023-04-01T07:05:52;20.90;;;12.38;;
75054;SDS011;63636;44.746;10.488;2023-04-01T07:08:23;21.55;;;13.15;;
75054;SDS011;63636;44.746;10.488;2023-04-01T07:13:53;23.58;;;14.18;;
75054;SDS011;63636;44.746;10.488;2023-04-01T07:21:41;21.85;;;12.82;;
75054;SDS011;63636;44.746;10.488;2023-04-01T07:24:21;23.45;;;12.63;;
75054;SDS011;63636;44.746;10.488;2023-04-01T07:26:58;17.08;;;11.05;;
75054;SDS011;63636;44.746;10.488;2023-04-01T07:29:27;20.38;;;12.35;;
75054;SDS011;63636;44.746;10.488;2023-04-01T07:34:36;18.83;;;10.65;;
75054;SDS011;63636;44.746;10.488;2023-04-01T07:52:48;19.38;;;10.40;;
75054;SDS011;63636;44.746;10.488;2023-04-01T08:08:27;16.55;;;9.55;;
75054;SDS011;63636;44.746;10.488;2023-04-01T08:11:32;14.07;;;8.77;;
75054;SDS011;63636;44.746;10.488;2023-04-01T08:14:32;12.45;;;7.90;;
75054;SDS011;63636;44.746;10.488;2023-04-01T08:25:11;14.68;;;8.73;;
75054;SDS011;63636;44.746;10.488;2023-04-01T08:27:41;13.82;;;7.90;;
75054;SDS011;63636;44.746;10.488;2023-04-01T08:30:19;14.15;;;7.85;;
75054;SDS011;63636;44.746;10.488;2023-04-01T08:33:00;11.90;;;7.57;;
75054;SDS011;63636;44.746;10.488;2023-04-01T08:35:29;16.30;;;9.27;;
75054;SDS011;63636;44.746;10.488;2023-04-01T08:37:58;19.50;;;10.05;;
75054;SDS011;63636;44.746;10.488;2023-04-01T08:43:21;16.35;;;10.25;;
75054;SDS011;63636;44.746;10.488;2023-04-01T08:48:19;13.25;;;8.57;;
75054;SDS011;63636;44.746;10.488;2023-04-01T08:58:50;13.77;;;6.55;;
75054;SDS011;63636;44.746;10.488;2023-04-01T09:04:24;10.35;;;6.28;;
75054;SDS011;63636;44.746;10.488;2023-04-01T09:25:23;10.00;;;6.80;;
75054;SDS011;63636;44.746;10.488;2023-04-01T10:37:23;10.43;;;6.85;;
75054;SDS011;63636;44.746;10.488;2023-04-01T10:40:13;8.85;;;5.22;;
75054;SDS011;63636;44.746;10.488;2023-04-01T10:43:09;7.10;;;4.55;;
75054;SDS011;63636;44.746;10.488;2023-04-01T10:48:58;8.00;;;4.60;;
75054;SDS011;63636;44.746;10.488;2023-04-01T11:11:47;6.07;;;2.50;;
75054;SDS011;63636;44.746;10.488;2023-04-01T11:32:46;1.42;;;0.60;;
75054;SDS011;63636;44.746;10.488;2023-04-01T11:40:37;1.02;;;0.50;;
75054;SDS011;63636;44.746;10.488;2023-04-01T11:43:55;1.38;;;0.32;;
75054;SDS011;63636;44.746;10.488;2023-04-01T11:47:19;1.48;;;0.40;;
75054;SDS011;63636;44.746;10.488;2023-04-01T11:49:38;0.30;;;0.22;;
75054;SDS011;63636;44.746;10.488;2023-04-01T11:52:32;0.50;;;0.20;;
75054;SDS011;63636;44.746;10.488;2023-04-01T11:55:05;0.17;;;0.10;;
75054;SDS011;63636;44.746;10.488;2023-04-01T12:00:21;0.33;;;0.20;;
75054;SDS011;63636;44.746;10.488;2023-04-01T12:05:42;0.20;;;0.20;;
75054;SDS011;63636;44.746;10.488;2023-04-01T12:08:19;0.52;;;0.32;;
75054;SDS011;63636;44.746;10.488;2023-04-01T12:34:06;0.40;;;0.17;;
75054;SDS011;63636;44.746;10.488;2023-04-01T12:39:37;0.10;;;0.10;;
75054;SDS011;63636;44.746;10.488;2023-04-01T12:53:22;0.20;;;0.10;;
75054;SDS011;63636;44.746;10.488;2023-04-01T12:55:49;0.70;;;0.20;;
75054;SDS011;63636;44.746;10.488;2023-04-01T13:01:01;1.15;;;0.25;;
75054;SDS011;63636;44.746;10.488;2023-04-01T13:21:39;0.30;;;0.10;;
75054;SDS011;63636;44.746;10.488;2023-04-01T13:32:18;0.30;;;0.20;;
75054;SDS011;63636;44.746;10.488;2023-04-01T13:34:47;0.40;;;0.32;;
75054;SDS011;63636;44.746;10.488;2023-04-01T13:39:49;0.20;;;0.20;;
75054;SDS011;63636;44.746;10.488;2023-04-01T13:42:28;1.00;;;0.20;;
75054;SDS011;63636;44.746;10.488;2023-04-01T13:53:26;0.57;;;0.20;;
75054;SDS011;63636;44.746;10.488;2023-04-01T14:01:36;0.55;;;0.20;;
75054;SDS011;63636;44.746;10.488;2023-04-01T14:04:20;0.20;;;0.20;;
75054;SDS011;63636;44.746;10.488;2023-04-01T14:15:01;0.20;;;0.20;;
75054;SDS011;63636;44.746;10.488;2023-04-01T14:22:54;0.60;;;0.25;;
75054;SDS011;63636;44.746;10.488;2023-04-01T14:26:07;1.58;;;0.40;;
75054;SDS011;63636;44.746;10.488;2023-04-01T14:31:12;5.70;;;1.20;;
75054;SDS011;63636;44.746;10.488;2023-04-01T14:36:25;0.85;;;0.35;;
75054;SDS011;63636;44.746;10.488;2023-04-01T14:49:36;3.50;;;0.57;;
75054;SDS011;63636;44.746;10.488;2023-04-01T14:52:04;0.90;;;0.22;;
75054;SDS011;63636;44.746;10.488;2023-04-01T14:54:32;1.65;;;0.20;;
75054;SDS011;63636;44.746;10.488;2023-04-01T14:59:27;0.75;;;0.50;;
75054;SDS011;63636;44.746;10.488;2023-04-01T15:09:33;1.00;;;0.30;;
75054;SDS011;63636;44.746;10.488;2023-04-01T15:14:50;0.57;;;0.30;;
75054;SDS011;63636;44.746;10.488;2023-04-01T15:17:27;0.93;;;0.40;;
75054;SDS011;63636;44.746;10.488;2023-04-01T15:22:32;0.25;;;0.10;;
75054;SDS011;63636;44.746;10.488;2023-04-01T15:38:05;0.40;;;0.28;;
75054;SDS011;63636;44.746;10.488;2023-04-01T15:40:36;1.67;;;0.30;;
75054;SDS011;63636;44.746;10.488;2023-04-01T15:45:39;0.40;;;0.20;;
75054;SDS011;63636;44.746;10.488;2023-04-01T15:50:46;0.45;;;0.20;;
75054;SDS011;63636;44.746;10.488;2023-04-01T16:03:37;1.75;;;0.20;;
75054;SDS011;63636;44.746;10.488;2023-04-01T16:19:12;0.75;;;0.40;;
75054;SDS011;63636;44.746;10.488;2023-04-01T16:21:46;1.35;;;0.20;;
75054;SDS011;63636;44.746;10.488;2023-04-01T16:26:56;0.30;;;0.30;;
75054;SDS011;63636;44.746;10.488;2023-04-01T16:32:16;0.43;;;0.22;;
75054;SDS011;63636;44.746;10.488;2023-04-01T16:35:13;0.45;;;0.20;;
75054;SDS011;63636;44.746;10.488;2023-04-01T16:37:34;0.35;;;0.30;;
75054;SDS011;63636;44.746;10.488;2023-04-01T16:42:51;0.65;;;0.40;;
75054;SDS011;63636;44.746;10.488;2023-04-01T16:48:15;1.05;;;0.30;;
75054;SDS011;63636;44.746;10.488;2023-04-01T16:58:06;1.02;;;0.32;;
75054;SDS011;63636;44.746;10.488;2023-04-01T17:00:40;1.45;;;0.32;;
75054;SDS011;63636;44.746;10.488;2023-04-01T17:05:48;0.82;;;0.40;;
75054;SDS011;63636;44.746;10.488;2023-04-01T17:08:26;2.25;;;0.68;;
75054;SDS011;63636;44.746;10.488;2023-04-01T17:13:27;2.00;;;0.50;;
75054;SDS011;63636;44.746;10.488;2023-04-01T17:16:01;1.52;;;0.70;;
75054;SDS011;63636;44.746;10.488;2023-04-01T17:18:36;0.50;;;0.40;;
75054;SDS011;63636;44.746;10.488;2023-04-01T17:21:47;2.25;;;0.60;;
75054;SDS011;63636;44.746;10.488;2023-04-01T17:23:53;0.90;;;0.55;;
75054;SDS011;63636;44.746;10.488;2023-04-01T17:54:57;2.97;;;0.93;;
75054;SDS011;63636;44.746;10.488;2023-04-01T17:57:30;1.65;;;0.90;;
75054;SDS011;63636;44.746;10.488;2023-04-01T18:00:14;2.67;;;1.10;;
75054;SDS011;63636;44.746;10.488;2023-04-01T18:05:22;4.20;;;1.30;;
75054;SDS011;63636;44.746;10.488;2023-04-01T18:07:56;3.13;;;1.80;;
75054;SDS011;63636;44.746;10.488;2023-04-01T18:18:31;2.40;;;1.08;;
75054;SDS011;63636;44.746;10.488;2023-04-01T18:21:06;3.90;;;1.20;;
75054;SDS011;63636;44.746;10.488;2023-04-01T18:23:39;4.05;;;1.50;;
75054;SDS011;63636;44.746;10.488;2023-04-01T18:26:14;2.88;;;1.40;;
75054;SDS011;63636;44.746;10.488;2023-04-01T18:28:48;4.20;;;1.38;;
75054;SDS011;63636;44.746;10.488;2023-04-01T18:31:16;2.85;;;1.20;;
75054;SDS011;63636;44.746;10.488;2023-04-01T18:38:40;3.67;;;1.20;;
75054;SDS011;63636;44.746;10.488;2023-04-01T18:51:46;3.00;;;1.30;;
75054;SDS011;63636;44.746;10.488;2023-04-01T18:54:16;4.63;;;1.60;;
75054;SDS011;63636;44.746;10.488;2023-04-01T18:56:47;3.00;;;1.35;;
75054;SDS011;63636;44.746;10.488;2023-04-01T18:59:27;4.55;;;1.50;;
75054;SDS011;63636;44.746;10.488;2023-04-01T19:09:46;5.57;;;1.60;;
75054;SDS011;63636;44.746;10.488;2023-04-01T19:17:06;3.45;;;1.35;;
75054;SDS011;63636;44.746;10.488;2023-04-01T19:22:03;6.00;;;1.80;;
75054;SDS011;63636;44.746;10.488;2023-04-01T19:37:54;3.67;;;1.13;;
75054;SDS011;63636;44.746;10.488;2023-04-01T19:43:12;3.63;;;1.20;;
75054;SDS011;63636;44.746;10.488;2023-04-01T19:45:47;2.50;;;0.90;;
75054;SDS011;63636;44.746;10.488;2023-04-01T19:50:49;3.08;;;1.10;;
75054;SDS011;63636;44.746;10.488;2023-04-01T19:53:22;3.33;;;1.10;;
75054;SDS011;63636;44.746;10.488;2023-04-01T19:55:56;3.78;;;1.30;;
75054;SDS011;63636;44.746;10.488;2023-04-01T19:58:26;4.35;;;1.30;;
75054;SDS011;63636;44.746;10.488;2023-04-01T20:00:58;5.05;;;1.30;;
75054;SDS011;63636;44.746;10.488;2023-04-01T20:13:48;4.30;;;1.20;;
75054;SDS011;63636;44.746;10.488;2023-04-01T20:16:15;2.67;;;1.00;;
75054;SDS011;63636;44.746;10.488;2023-04-01T20:24:01;3.40;;;1.20;;
75054;SDS011;63636;44.746;10.488;2023-04-01T20:26:26;4.22;;;1.30;;
75054;SDS011;63636;44.746;10.488;2023-04-01T20:31:42;3.85;;;1.40;;
75054;SDS011;63636;44.746;10.488;2023-04-01T20:34:22;4.75;;;1.40;;
75054;SDS011;63636;44.746;10.488;2023-04-01T20:42:21;3.17;;;1.10;;
75054;SDS011;63636;44.746;10.488;2023-04-01T20:49:41;1.67;;;0.90;;
75054;SDS011;63636;44.746;10.488;2023-04-01T20:57:12;2.70;;;0.90;;
75054;SDS011;63636;44.746;10.488;2023-04-01T21:02:18;2.45;;;0.70;;
75054;SDS011;63636;44.746;10.488;2023-04-01T21:08:02;3.53;;;1.08;;
75054;SDS011;63636;44.746;10.488;2023-04-01T21:12:51;2.30;;;0.80;;
75054;SDS011;63636;44.746;10.488;2023-04-01T21:15:38;3.22;;;0.80;;
75054;SDS011;63636;44.746;10.488;2023-04-01T21:26:00;2.40;;;0.70;;
75054;SDS011;63636;44.746;10.488;2023-04-01T21:31:05;2.70;;;0.93;;
75054;SDS011;63636;44.746;10.488;2023-04-01T21:33:53;1.63;;;0.73;;
75054;SDS011;63636;44.746;10.488;2023-04-01T21:37:10;1.80;;;0.80;;
75054;SDS011;63636;44.746;10.488;2023-04-01T21:39:22;3.47;;;0.90;;
75054;SDS011;63636;44.746;10.488;2023-04-01T21:42:01;1.65;;;0.70;;
75054;SDS011;63636;44.746;10.488;2023-04-01T22:00:17;2.20;;;0.63;;
75054;SDS011;63636;44.746;10.488;2023-04-01T22:05:19;2.72;;;0.90;;
75054;SDS011;63636;44.746;10.488;2023-04-01T22:08:06;1.55;;;0.60;;
75054;SDS011;63636;44.746;10.488;2023-04-01T22:10:39;2.33;;;0.73;;
75054;SDS011;63636;44.746;10.488;2023-04-01T22:13:16;1.88;;;0.70;;
75054;SDS011;63636;44.746;10.488;2023-04-01T22:18:31;2.50;;;0.80;;
75054;SDS011;63636;44.746;10.488;2023-04-01T22:21:00;4.10;;;0.95;;
75054;SDS011;63636;44.746;10.488;2023-04-01T22:28:39;2.10;;;0.98;;
75054;SDS011;63636;44.746;10.488;2023-04-01T22:31:07;3.58;;;1.10;;
75054;SDS011;63636;44.746;10.488;2023-04-01T22:43:54;3.47;;;0.90;;
75054;SDS011;63636;44.746;10.488;2023-04-01T22:49:04;4.60;;;1.00;;
75054;SDS011;63636;44.746;10.488;2023-04-01T22:54:21;2.70;;;0.90;;
75054;SDS011;63636;44.746;10.488;2023-04-01T22:56:53;2.55;;;0.98;;
75054;SDS011;63636;44.746;10.488;2023-04-01T22:59:25;2.25;;;0.80;;
75054;SDS011;63636;44.746;10.488;2023-04-01T23:01:55;3.13;;;1.00;;
75054;SDS011;63636;44.746;10.488;2023-04-01T23:04:24;2.85;;;1.00;;
75054;SDS011;63636;44.746;10.488;2023-04-01T23:06:58;2.38;;;0.90;;
75054;SDS011;63636;44.746;10.488;2023-04-01T23:09:26;3.30;;;1.13;;
75054;SDS011;63636;44.746;10.488;2023-04-01T23:11:54;2.88;;;1.02;;
75054;SDS011;63636;44.746;10.488;2023-04-01T23:16:51;3.95;;;1.30;;
75054;SDS011;63636;44.746;10.488;2023-04-01T23:19:21;5.60;;;2.25;;
75054;SDS011;63636;44.746;10.488;2023-04-01T23:21:49;5.60;;;2.53;;
75054;SDS011;63636;44.746;10.488;2023-04-01T23:27:23;8.93;;;2.92;;
75054;SDS011;63636;44.746;10.488;2023-04-01T23:29:50;6.07;;;3.15;;
75054;SDS011;63636;44.746;10.488;2023-04-01T23:32:22;5.18;;;2.72;;
75054;SDS011;63636;44.746;10.488;2023-04-01T23:34:55;6.57;;;2.83;;
75054;SDS011;63636;44.746;10.488;2023-04-01T23:37:22;6.72;;;2.80;;
75054;SDS011;63636;44.746;10.488;2023-04-01T23:39:52;6.05;;;2.45;;
75054;SDS011;63636;44.746;10.488;2023-04-01T23:42:19;5.85;;;2.60;;
75054;SDS011;63636;44.746;10.488;2023-04-01T23:44:46;6.10;;;2.30;;
75054;SDS011;63636;44.746;10.488;2023-04-01T23:47:17;6.90;;;2.28;;
75054;SDS011;63636;44.746;10.488;2023-04-01T23:49:48;5.55;;;2.22;;
75054;SDS011;63636;44.746;10.488;2023-04-01T23:52:22;6.45;;;2.25;;
75054;SDS011;63636;44.746;10.488;2023-04-01T23:54:53;8.63;;;2.78;;
75054;SDS011;63636;44.746;10.488;2023-04-01T23:57:23;5.80;;;2.65;;
75054;SDS011;63636;44.746;10.488;2023-04-01T23:59:59;6.90;;;3.00;;
